createdAt,value
2023-05-05T00:01:40.111Z,100.00
2023-05-05T00:04:07.577Z,100.00
2023-05-05T00:06:35.168Z,100.00
2023-05-05T00:09:02.333Z,100.00
2023-05-05T00:11:29.833Z,100.00
2023-05-05T00:13:57.052Z,100.00
2023-05-05T00:16:24.799Z,100.00
2023-05-05T00:18:52.072Z,100.00
2023-05-05T00:21:19.555Z,100.00
2023-05-05T00:23:46.777Z,100.00
2023-05-05T00:26:14.520Z,100.00
2023-05-05T00:28:43.780Z,100.00
2023-05-05T00:31:11.498Z,100.00
2023-05-05T00:33:38.800Z,100.00
2023-05-05T00:36:07.649Z,100.00
2023-05-05T00:38:34.850Z,100.00
2023-05-05T00:41:02.392Z,100.00
2023-05-05T00:43:29.596Z,100.00
2023-05-05T00:46:04.196Z,100.00
2023-05-05T00:48:32.662Z,100.00
2023-05-05T00:51:00.482Z,100.00
2023-05-05T00:53:28.417Z,99.90
2023-05-05T00:55:56.001Z,98.39
2023-05-05T00:58:24.725Z,98.40
2023-05-05T01:00:52.496Z,97.76
2023-05-05T01:03:19.810Z,97.77
2023-05-05T01:05:50.482Z,97.91
2023-05-05T01:08:37.565Z,97.21
2023-05-05T01:11:17.219Z,94.72
2023-05-05T01:14:09.121Z,95.80
2023-05-05T01:16:38.157Z,94.66
2023-05-05T01:19:29.944Z,95.66
2023-05-05T01:22:00.842Z,94.05
2023-05-05T01:24:50.936Z,93.46
2023-05-05T01:27:45.115Z,92.48
2023-05-05T01:30:31.226Z,92.03
2023-05-05T01:33:04.175Z,91.82
2023-05-05T01:35:45.794Z,91.11
2023-05-05T01:38:26.395Z,91.67
2023-05-05T01:41:01.922Z,91.94
2023-05-05T01:43:33.908Z,93.25
2023-05-05T01:46:02.614Z,91.37
2023-05-05T01:48:31.225Z,91.08
2023-05-05T01:51:00.734Z,93.34
2023-05-05T01:53:29.702Z,93.04
2023-05-05T01:55:58.193Z,93.04
2023-05-05T01:58:28.271Z,92.49
2023-05-05T02:00:57.578Z,93.85
2023-05-05T02:03:26.944Z,94.34
2023-05-05T02:05:55.401Z,94.14
2023-05-05T02:08:25.016Z,94.19
2023-05-05T02:10:53.945Z,94.79
2023-05-05T02:13:23.894Z,96.61
2023-05-05T02:15:53.541Z,96.32
2023-05-05T02:18:22.964Z,96.67
2023-05-05T02:20:50.990Z,97.02
2023-05-05T02:23:19.294Z,96.01
2023-05-05T02:25:51.401Z,95.61
2023-05-05T02:28:23.281Z,94.27
2023-05-05T02:30:57.686Z,93.47
2023-05-05T02:33:29.219Z,92.09
2023-05-05T02:35:58.172Z,90.70
2023-05-05T02:38:29.461Z,88.56
2023-05-05T02:41:03.922Z,87.50
2023-05-05T02:43:33.204Z,85.57
2023-05-05T02:46:01.219Z,85.26
2023-05-05T02:48:30.056Z,83.74
2023-05-05T02:51:01.100Z,82.32
2023-05-05T02:53:34.675Z,81.41
2023-05-05T02:56:30.093Z,82.13
2023-05-05T02:59:17.828Z,81.13
2023-05-05T03:02:03.342Z,79.57
2023-05-05T03:04:47.121Z,78.51
2023-05-05T03:07:30.898Z,77.66
2023-05-05T03:10:07.450Z,75.79
2023-05-05T03:12:48.564Z,75.21
2023-05-05T03:15:28.135Z,74.25
2023-05-05T03:17:57.161Z,73.03
2023-05-05T03:20:26.060Z,73.53
2023-05-05T03:22:54.976Z,72.44
2023-05-05T03:25:22.804Z,71.87
2023-05-05T03:27:51.106Z,70.78
2023-05-05T03:30:21.428Z,69.23
2023-05-05T03:32:51.529Z,67.70
2023-05-05T03:35:19.294Z,68.89
2023-05-05T03:37:46.595Z,67.16
2023-05-05T03:40:17.805Z,65.23
2023-05-05T03:42:45.149Z,62.55
2023-05-05T03:45:12.947Z,59.69
2023-05-05T03:47:40.561Z,57.21
2023-05-05T03:50:09.390Z,56.95
2023-05-05T03:52:36.708Z,54.17
2023-05-05T03:55:04.623Z,50.67
2023-05-05T03:57:31.905Z,50.10
2023-05-05T03:59:59.471Z,51.17
2023-05-05T04:02:27.433Z,49.87
2023-05-05T04:04:55.217Z,46.61
2023-05-05T04:07:23.742Z,47.00
2023-05-05T04:09:51.856Z,45.38
2023-05-05T04:12:19.169Z,42.64
2023-05-05T04:14:46.749Z,42.82
2023-05-05T04:17:14.324Z,39.01
2023-05-05T04:19:42.822Z,41.37
2023-05-05T04:22:10.061Z,43.04
2023-05-05T04:24:37.557Z,44.47
2023-05-05T04:27:04.914Z,43.23
2023-05-05T04:29:32.491Z,46.25
2023-05-05T04:31:59.822Z,45.96
2023-05-05T04:34:27.721Z,43.26
2023-05-05T04:36:55.251Z,41.64
2023-05-05T04:39:23.354Z,39.16
2023-05-05T04:41:50.770Z,41.20
2023-05-05T04:44:18.410Z,41.24
2023-05-05T04:46:46.025Z,42.31
2023-05-05T04:49:13.548Z,42.48
2023-05-05T04:51:42.264Z,38.91
2023-05-05T04:54:09.806Z,39.17
2023-05-05T04:56:37.270Z,40.27
2023-05-05T04:59:04.744Z,39.91
2023-05-05T05:01:31.987Z,40.43
2023-05-05T05:03:59.556Z,40.20
2023-05-05T05:06:27.288Z,42.45
2023-05-05T05:08:54.956Z,44.27
2023-05-05T05:11:22.389Z,45.86
2023-05-05T05:13:50.280Z,46.67
2023-05-05T05:16:17.555Z,47.68
2023-05-05T05:18:45.326Z,47.69
2023-05-05T05:21:13.606Z,46.45
2023-05-05T05:23:41.157Z,46.44
2023-05-05T05:26:08.460Z,47.95
2023-05-05T05:28:36.695Z,47.36
2023-05-05T05:31:04.878Z,48.51
2023-05-05T05:33:32.695Z,47.99
2023-05-05T05:35:59.961Z,45.53
2023-05-05T05:38:28.246Z,43.05
2023-05-05T05:40:58.803Z,44.92
2023-05-05T05:43:26.319Z,44.80
2023-05-05T05:45:53.680Z,44.88
2023-05-05T05:48:24.845Z,45.40
2023-05-05T05:50:52.826Z,44.11
2023-05-05T05:53:20.625Z,40.87
2023-05-05T05:55:48.719Z,35.43
2023-05-05T05:58:17.308Z,34.73
2023-05-05T06:00:45.660Z,33.20
2023-05-05T06:03:13.819Z,34.27
2023-05-05T06:05:42.058Z,35.37
2023-05-05T06:08:09.873Z,35.62
2023-05-05T06:10:42.465Z,31.56
2023-05-05T06:13:15.468Z,33.10
2023-05-05T06:15:46.282Z,31.13
2023-05-05T06:18:15.116Z,30.48
2023-05-05T06:20:43.561Z,27.88
2023-05-05T06:23:12.357Z,32.85
2023-05-05T06:25:43.920Z,31.61
2023-05-05T06:28:11.448Z,32.50
2023-05-05T06:30:38.606Z,32.54
2023-05-05T06:33:06.218Z,30.37
2023-05-05T06:35:33.605Z,35.56
2023-05-05T06:38:01.173Z,35.87
2023-05-05T06:40:28.443Z,36.45
2023-05-05T06:42:56.037Z,33.98
2023-05-05T06:45:28.434Z,30.87
2023-05-05T06:47:55.918Z,31.72
2023-05-05T06:50:23.118Z,31.87
2023-05-05T06:52:50.720Z,33.67
2023-05-05T06:55:18.579Z,36.12
2023-05-05T06:57:46.043Z,36.50
2023-05-05T07:00:15.019Z,34.04
2023-05-05T07:02:42.709Z,36.93
2023-05-05T07:05:10.548Z,38.02
2023-05-05T07:07:38.950Z,43.57
2023-05-05T07:10:06.972Z,39.83
2023-05-05T07:12:34.715Z,36.58
2023-05-05T07:15:12.218Z,35.65
2023-05-05T07:17:39.995Z,37.37
2023-05-05T07:20:09.298Z,36.85
2023-05-05T07:22:37.327Z,37.67
2023-05-05T07:25:05.346Z,40.90
2023-05-05T07:27:33.386Z,40.86
2023-05-05T07:30:01.410Z,42.56
2023-05-05T07:32:29.023Z,41.74
2023-05-05T07:34:56.276Z,38.50
2023-05-05T07:37:23.999Z,42.16
2023-05-05T07:39:51.322Z,40.75
2023-05-05T07:42:18.966Z,38.76
2023-05-05T07:44:46.257Z,37.84
2023-05-05T07:47:13.783Z,39.03
2023-05-05T07:49:41.210Z,42.13
2023-05-05T07:52:08.963Z,48.23
2023-05-05T07:54:36.336Z,44.22
2023-05-05T07:57:04.002Z,43.71
2023-05-05T07:59:31.361Z,41.15
2023-05-05T08:01:59.169Z,42.01
2023-05-05T08:04:26.426Z,41.08
2023-05-05T08:06:53.939Z,38.45
2023-05-05T08:09:21.162Z,40.81
2023-05-05T08:11:48.756Z,40.86
2023-05-05T08:14:16.047Z,41.60
2023-05-05T08:16:43.670Z,43.17
2023-05-05T08:19:21.530Z,40.01
2023-05-05T08:21:52.954Z,35.54
2023-05-05T08:24:20.365Z,38.17
2023-05-05T08:26:47.943Z,39.31
2023-05-05T08:29:15.223Z,38.75
2023-05-05T08:31:42.827Z,36.91
2023-05-05T08:34:10.149Z,35.50
2023-05-05T08:36:37.751Z,38.18
2023-05-05T08:39:04.976Z,38.27
2023-05-05T08:41:33.424Z,37.74
2023-05-05T08:44:01.878Z,44.79
2023-05-05T08:46:31.169Z,45.85
2023-05-05T08:48:59.840Z,41.39
2023-05-05T08:51:31.722Z,44.36
2023-05-05T08:54:03.043Z,43.10
2023-05-05T08:56:34.576Z,42.32
2023-05-05T08:59:02.939Z,45.27
2023-05-05T09:01:32.447Z,44.69
2023-05-05T09:04:00.234Z,43.89
2023-05-05T09:06:29.028Z,42.76
2023-05-05T09:08:58.275Z,41.99
2023-05-05T09:11:28.161Z,42.80
2023-05-05T09:13:56.121Z,43.91
2023-05-05T09:16:23.802Z,41.66
2023-05-05T09:18:51.108Z,44.21
2023-05-05T09:21:23.205Z,43.26
2023-05-05T09:24:13.424Z,45.47
2023-05-05T09:26:43.494Z,50.59
2023-05-05T09:29:17.305Z,47.09
2023-05-05T09:31:45.052Z,45.37
2023-05-05T09:34:16.408Z,48.00
2023-05-05T09:36:49.467Z,49.86
2023-05-05T09:39:20.615Z,45.32
2023-05-05T09:41:48.228Z,46.22
2023-05-05T09:44:18.530Z,43.91
2023-05-05T09:46:53.289Z,42.45
2023-05-05T09:49:26.760Z,44.70
2023-05-05T09:51:55.058Z,43.27
2023-05-05T09:54:27.629Z,41.70
2023-05-05T09:56:58.090Z,41.94
2023-05-05T09:59:25.477Z,42.37
2023-05-05T10:01:53.124Z,47.00
2023-05-05T10:04:25.124Z,48.36
2023-05-05T10:06:52.850Z,50.80
2023-05-05T10:09:20.140Z,49.24
2023-05-05T10:11:47.977Z,44.52
2023-05-05T10:14:16.168Z,48.20
2023-05-05T10:16:50.950Z,51.18
2023-05-05T10:19:20.268Z,48.10
2023-05-05T10:21:50.793Z,49.14
2023-05-05T10:24:30.618Z,49.14
2023-05-05T10:27:00.068Z,50.43
2023-05-05T10:29:48.958Z,49.40
2023-05-05T10:32:53.873Z,47.49
2023-05-05T10:35:23.620Z,49.34
2023-05-05T10:37:52.387Z,51.45
2023-05-05T10:40:22.483Z,50.92
2023-05-05T10:42:51.003Z,50.15
2023-05-05T10:45:18.266Z,51.20
2023-05-05T10:47:46.467Z,54.88
2023-05-05T10:50:27.153Z,52.66
2023-05-05T10:53:19.558Z,50.92
2023-05-05T10:55:57.234Z,47.96
2023-05-05T10:58:55.517Z,49.28
2023-05-05T11:01:32.205Z,51.31
2023-05-05T11:04:18.863Z,53.57
2023-05-05T11:07:21.749Z,51.74
2023-05-05T11:09:57.457Z,53.58
2023-05-05T11:12:25.007Z,54.19
2023-05-05T11:15:20.523Z,54.20
2023-05-05T11:17:48.559Z,52.98
2023-05-05T11:20:16.388Z,52.86
2023-05-05T11:23:02.233Z,52.71
2023-05-05T11:25:40.766Z,52.70
2023-05-05T11:28:18.400Z,51.86
2023-05-05T11:30:55.022Z,54.18
2023-05-05T11:33:29.444Z,54.60
2023-05-05T11:36:02.813Z,52.48
2023-05-05T11:39:00.874Z,54.30
2023-05-05T11:41:34.424Z,55.39
2023-05-05T11:44:20.925Z,55.85
2023-05-05T11:46:51.573Z,54.50
2023-05-05T11:49:32.163Z,56.08
2023-05-05T11:52:11.251Z,55.79
2023-05-05T11:54:41.513Z,56.40
2023-05-05T11:57:09.342Z,53.68
2023-05-05T11:59:49.655Z,55.24
2023-05-05T12:02:21.233Z,56.26
2023-05-05T12:04:49.394Z,56.85
2023-05-05T12:07:18.573Z,57.83
2023-05-05T12:09:47.361Z,57.26
2023-05-05T12:12:15.842Z,56.41
2023-05-05T12:14:54.287Z,57.14
2023-05-05T12:17:23.566Z,57.50
2023-05-05T12:19:53.446Z,55.72
2023-05-05T12:22:24.078Z,54.09
2023-05-05T12:24:59.134Z,53.88
2023-05-05T12:27:28.142Z,56.09
2023-05-05T12:29:56.936Z,58.19
2023-05-05T12:32:26.174Z,56.91
2023-05-05T12:34:57.402Z,55.35
2023-05-05T12:37:26.913Z,53.07
2023-05-05T12:39:55.148Z,53.55
2023-05-05T12:42:23.156Z,55.00
2023-05-05T12:44:50.427Z,54.33
2023-05-05T12:47:33.589Z,54.28
2023-05-05T12:50:03.130Z,51.16
2023-05-05T12:52:44.516Z,51.04
2023-05-05T12:55:12.429Z,50.28
2023-05-05T12:58:00.552Z,54.53
2023-05-05T13:00:29.248Z,54.14
2023-05-05T13:02:57.075Z,52.65
2023-05-05T13:05:39.563Z,51.38
2023-05-05T13:08:07.192Z,52.74
2023-05-05T13:10:34.448Z,53.41
2023-05-05T13:13:02.605Z,51.41
2023-05-05T13:15:30.021Z,52.79
2023-05-05T13:18:01.485Z,51.70
2023-05-05T13:20:28.994Z,51.89
2023-05-05T13:22:57.394Z,55.34
2023-05-05T13:25:24.665Z,53.04
2023-05-05T13:27:52.323Z,54.15
2023-05-05T13:30:20.750Z,52.93
2023-05-05T13:32:48.354Z,52.90
2023-05-05T13:35:16.516Z,53.19
2023-05-05T13:37:46.055Z,52.68
2023-05-05T13:40:13.977Z,50.98
2023-05-05T13:42:41.497Z,50.25
2023-05-05T13:45:09.389Z,47.12
2023-05-05T13:47:37.070Z,48.33
2023-05-05T13:50:04.749Z,51.72
2023-05-05T13:52:33.595Z,53.13
2023-05-05T13:55:01.149Z,54.01
2023-05-05T13:57:28.815Z,54.28
2023-05-05T13:59:56.392Z,54.14
2023-05-05T14:02:23.934Z,52.09
2023-05-05T14:04:51.171Z,52.42
2023-05-05T14:07:18.699Z,53.05
2023-05-05T14:09:45.881Z,55.13
2023-05-05T14:12:13.557Z,54.34
2023-05-05T14:14:40.817Z,53.37
2023-05-05T14:17:08.394Z,53.68
2023-05-05T14:19:36.511Z,53.24
2023-05-05T14:22:04.035Z,52.37
2023-05-05T14:24:31.261Z,52.29
2023-05-05T14:26:58.984Z,52.44
2023-05-05T14:29:26.333Z,51.21
2023-05-05T14:31:54.340Z,52.45
2023-05-05T14:34:21.965Z,51.65
2023-05-05T14:36:49.549Z,50.41
2023-05-05T14:39:17.087Z,50.48
2023-05-05T14:41:44.718Z,50.69
2023-05-05T14:44:12.073Z,51.13
2023-05-05T14:46:39.662Z,50.66
2023-05-05T14:49:06.907Z,49.05
2023-05-05T14:51:34.471Z,48.63
2023-05-05T14:54:01.852Z,48.55
2023-05-05T14:56:29.947Z,48.90
2023-05-05T14:58:57.259Z,49.11
2023-05-05T15:01:27.868Z,49.12
2023-05-05T15:03:55.304Z,48.39
2023-05-05T15:06:23.203Z,47.56
2023-05-05T15:08:50.523Z,46.69
2023-05-05T15:11:18.115Z,47.43
2023-05-05T15:13:45.327Z,47.28
2023-05-05T15:16:12.927Z,47.69
2023-05-05T15:18:40.240Z,47.82
2023-05-05T15:21:07.895Z,47.18
2023-05-05T15:23:36.490Z,47.86
2023-05-05T15:26:04.520Z,51.38
2023-05-05T15:28:31.717Z,51.38
2023-05-05T15:31:02.226Z,46.94
2023-05-05T15:33:31.143Z,46.55
2023-05-05T15:35:58.686Z,48.34
2023-05-05T15:38:26.030Z,47.02
2023-05-05T15:40:53.493Z,50.90
2023-05-05T15:43:20.988Z,50.93
2023-05-05T15:45:48.618Z,48.37
2023-05-05T15:48:15.823Z,49.00
2023-05-05T15:50:43.312Z,49.72
2023-05-05T15:53:10.506Z,49.24
2023-05-05T15:55:39.258Z,49.18
2023-05-05T15:58:06.426Z,49.74
2023-05-05T16:00:33.942Z,50.94
2023-05-05T16:03:01.551Z,51.72
2023-05-05T16:05:29.122Z,53.46
2023-05-05T16:07:56.398Z,55.77
2023-05-05T16:10:24.006Z,51.88
2023-05-05T16:12:52.255Z,52.30
2023-05-05T16:15:20.046Z,52.65
2023-05-05T16:17:47.688Z,51.99
2023-05-05T16:20:15.213Z,52.58
2023-05-05T16:22:42.500Z,53.68
2023-05-05T16:25:10.391Z,54.42
2023-05-05T16:27:37.996Z,57.42
2023-05-05T16:30:06.034Z,57.39
2023-05-05T16:32:33.302Z,59.31
2023-05-05T16:35:01.972Z,60.48
2023-05-05T16:37:29.182Z,61.75
2023-05-05T16:39:56.687Z,63.90
2023-05-05T16:42:24.409Z,64.22
2023-05-05T16:44:51.905Z,66.62
2023-05-05T16:47:19.133Z,66.17
2023-05-05T16:49:47.136Z,67.24
2023-05-05T16:52:14.583Z,68.62
2023-05-05T16:54:43.622Z,68.96
2023-05-05T16:57:10.810Z,71.80
2023-05-05T16:59:38.345Z,73.29
2023-05-05T17:02:06.099Z,72.09
2023-05-05T17:04:33.624Z,73.64
2023-05-05T17:07:00.796Z,72.04
2023-05-05T17:09:28.360Z,73.25
2023-05-05T17:11:56.087Z,73.83
2023-05-05T17:14:24.572Z,72.24
2023-05-05T17:16:51.838Z,71.36
2023-05-05T17:19:19.346Z,71.43
2023-05-05T17:21:46.560Z,72.09
2023-05-05T17:24:14.050Z,72.37
2023-05-05T17:26:41.625Z,72.13
2023-05-05T17:29:10.893Z,70.99
2023-05-05T17:31:39.794Z,70.32
2023-05-05T17:34:07.546Z,69.78
2023-05-05T17:36:35.554Z,70.34
2023-05-05T17:39:03.225Z,70.41
2023-05-05T17:41:30.377Z,71.89
2023-05-05T17:43:59.474Z,74.18
2023-05-05T17:46:26.807Z,74.21
2023-05-05T17:48:54.613Z,74.99
2023-05-05T17:51:21.837Z,75.62
2023-05-05T17:53:49.444Z,76.92
2023-05-05T17:56:16.720Z,77.43
2023-05-05T17:58:44.208Z,76.33
2023-05-05T18:01:22.499Z,75.58
2023-05-05T18:03:50.195Z,77.05
2023-05-05T18:06:17.613Z,78.65
2023-05-05T18:08:45.204Z,79.11
2023-05-05T18:11:12.572Z,80.25
2023-05-05T18:13:40.218Z,81.27
2023-05-05T18:16:07.552Z,81.47
2023-05-05T18:18:35.173Z,80.78
2023-05-05T18:21:02.505Z,81.26
2023-05-05T18:23:30.049Z,82.15
2023-05-05T18:25:57.226Z,82.36
2023-05-05T18:28:24.669Z,83.02
2023-05-05T18:30:52.082Z,83.66
2023-05-05T18:33:19.617Z,83.57
2023-05-05T18:35:46.771Z,84.38
2023-05-05T18:38:14.410Z,85.44
2023-05-05T18:40:42.347Z,85.60
2023-05-05T18:43:10.099Z,86.64
2023-05-05T18:45:37.471Z,87.02
2023-05-05T18:48:05.569Z,86.83
2023-05-05T18:50:33.388Z,87.12
2023-05-05T18:53:00.986Z,87.44
2023-05-05T18:55:28.252Z,87.93
2023-05-05T18:57:55.723Z,87.77
2023-05-05T19:00:22.979Z,87.50
2023-05-05T19:02:50.619Z,85.89
2023-05-05T19:05:18.216Z,87.25
2023-05-05T19:07:45.929Z,88.00
2023-05-05T19:10:13.346Z,88.36
2023-05-05T19:12:40.887Z,91.34
2023-05-05T19:15:08.906Z,90.53
2023-05-05T19:17:36.778Z,91.31
2023-05-05T19:20:04.350Z,91.00
2023-05-05T19:22:31.879Z,90.79
2023-05-05T19:24:59.156Z,89.98
2023-05-05T19:27:26.662Z,90.37
2023-05-05T19:29:53.963Z,90.77
2023-05-05T19:32:21.681Z,89.63
2023-05-05T19:34:49.055Z,90.32
2023-05-05T19:37:16.591Z,89.85
2023-05-05T19:39:45.769Z,89.69
2023-05-05T19:42:13.845Z,90.78
2023-05-05T19:44:41.126Z,89.53
2023-05-05T19:47:09.042Z,90.89
2023-05-05T19:49:38.311Z,91.92
2023-05-05T19:52:06.052Z,91.79
2023-05-05T19:54:33.319Z,92.13
2023-05-05T19:57:00.924Z,93.97
2023-05-05T19:59:28.176Z,93.93
2023-05-05T20:01:55.842Z,94.00
2023-05-05T20:04:23.125Z,93.73
2023-05-05T20:06:51.111Z,94.29
2023-05-05T20:09:18.758Z,95.36
2023-05-05T20:11:46.231Z,95.22
2023-05-05T20:14:13.592Z,94.35
2023-05-05T20:16:42.081Z,94.55
2023-05-05T20:19:09.312Z,95.68
2023-05-05T20:21:37.052Z,95.18
2023-05-05T20:24:04.698Z,95.96
2023-05-05T20:26:32.319Z,96.36
2023-05-05T20:28:59.579Z,95.85
2023-05-05T20:31:27.204Z,96.43
2023-05-05T20:33:54.495Z,96.72
2023-05-05T20:36:22.904Z,95.73
2023-05-05T20:38:51.979Z,95.64
2023-05-05T20:41:19.576Z,96.39
2023-05-05T20:43:46.840Z,95.46
2023-05-05T20:46:16.185Z,94.98
2023-05-05T20:48:44.356Z,95.99
2023-05-05T20:51:11.902Z,96.05
2023-05-05T20:53:39.088Z,95.67
2023-05-05T20:56:08.935Z,95.57
2023-05-05T20:58:36.471Z,96.17
2023-05-05T21:01:04.035Z,96.76
2023-05-05T21:03:31.304Z,97.40
2023-05-05T21:05:58.836Z,96.35
2023-05-05T21:08:26.851Z,97.53
2023-05-05T21:10:54.372Z,96.80
2023-05-05T21:13:21.671Z,95.96
2023-05-05T21:15:50.550Z,97.11
2023-05-05T21:18:17.814Z,97.36
2023-05-05T21:20:45.406Z,96.95
2023-05-05T21:23:12.591Z,96.42
2023-05-05T21:25:40.173Z,96.70
2023-05-05T21:28:07.587Z,96.87
2023-05-05T21:30:35.103Z,97.45
2023-05-05T21:33:02.368Z,98.30
2023-05-05T21:35:29.949Z,97.78
2023-05-05T21:37:57.266Z,98.99
2023-05-05T21:40:24.927Z,99.30
2023-05-05T21:42:52.204Z,99.13
2023-05-05T21:45:20.162Z,98.33
2023-05-05T21:47:47.446Z,99.50
2023-05-05T21:50:15.096Z,99.46
2023-05-05T21:52:42.482Z,99.13
2023-05-05T21:55:11.096Z,99.72
2023-05-05T21:57:38.468Z,99.42
2023-05-05T22:00:06.654Z,100.00
2023-05-05T22:02:39.730Z,99.95
2023-05-05T22:05:07.776Z,100.00
2023-05-05T22:07:35.806Z,99.69
2023-05-05T22:10:03.860Z,99.23
2023-05-05T22:12:31.329Z,100.00
2023-05-05T22:14:58.896Z,99.06
2023-05-05T22:17:26.206Z,100.00
2023-05-05T22:19:53.716Z,99.34
2023-05-05T22:22:21.165Z,99.21
2023-05-05T22:24:48.723Z,98.52
2023-05-05T22:27:16.018Z,99.45
2023-05-05T22:29:43.591Z,100.00
2023-05-05T22:32:11.392Z,99.75
2023-05-05T22:34:39.015Z,100.00
2023-05-05T22:37:06.298Z,100.00
2023-05-05T22:39:33.894Z,100.00
2023-05-05T22:42:02.038Z,100.00
2023-05-05T22:44:29.799Z,100.00
2023-05-05T22:46:57.268Z,100.00
2023-05-05T22:49:25.010Z,100.00
2023-05-05T22:51:52.416Z,100.00
2023-05-05T22:54:20.205Z,100.00
2023-05-05T22:56:47.805Z,100.00
2023-05-05T22:59:15.625Z,100.00
2023-05-05T23:01:43.103Z,100.00
2023-05-05T23:04:10.634Z,100.00
2023-05-05T23:06:39.701Z,100.00
2023-05-05T23:09:07.710Z,100.00
2023-05-05T23:11:34.918Z,100.00
2023-05-05T23:14:02.442Z,100.00
2023-05-05T23:16:29.756Z,100.00
2023-05-05T23:18:57.381Z,100.00
2023-05-05T23:21:24.634Z,100.00
2023-05-05T23:23:52.214Z,100.00
2023-05-05T23:26:19.501Z,100.00
2023-05-05T23:28:46.974Z,100.00
2023-05-05T23:31:14.235Z,100.00
2023-05-05T23:33:42.007Z,100.00
2023-05-05T23:36:09.308Z,100.00
2023-05-05T23:38:36.877Z,100.00
2023-05-05T23:41:04.275Z,100.00
2023-05-05T23:43:31.816Z,100.00
2023-05-05T23:45:59.363Z,100.00
2023-05-05T23:48:27.033Z,100.00
2023-05-05T23:50:54.692Z,100.00
2023-05-05T23:53:22.192Z,100.00
2023-05-05T23:55:49.383Z,100.00
2023-05-05T23:58:16.901Z,100.00
